Kezdőlap
METAR-TAF:

METAR-TAF

Repülőterek :

Lyndonville, Vermont, Amerikai Egyesült Államok

földrajzi szélesség: 44-34-09N, földrajzi hosszúság: 072-01-05W, magasság: 362 m

Jelenlegi meteorológiai megfigyelések

A jelentés 11 perccel ezelõtt készült, 13:55 UTC
Szélcsend
Hőmérséklet -20°C
Páratartalom 92%
Légköri nyomás 1028 hPa
Látótávolság: 16.1 km
Derült ég

METAR: KCDA 211355Z AUTO 00000KT 10SM CLR M20/M21 A3037 RMK AO2 T11971215

Idő: 09:06 (14:06 UTC)


TAF: hiányzik

Meteorológiai megfigyelések és előrejelzések több, mint 4000 repülőtéren (METAR és TAF jelentéseket).

A térképen piros és sárga pontok jelzik az elérhető meteorológiai állomásokat.

Mozgassa az egeret a pont fölött, hogy megjelenjen az állomás neve.

Azután kattintson az időjárási megfigyelések és előrejelzések megtekintéséhez.

A térkép megváltoztatása: kattintson a fekete keresztel jelölt zöld gombra ráközelítéshez, a vonallal jelölt zöld gombra távolításhoz, vagy a zöld nyilakra a szomszédos térképek eléréséhez.


METAR-TAF: